Se encontraron 11236 coincidencias

por Diecha
Sab Sep 26, 2020 12:25 am
Foro: Seguimientos Meteorológicos
Tema: 21 a 28/9 - Fresco a templado, caluroso N, luego tormentas C y NEA. Nuevas nevadas extremo S.
Respuestas: 223
Vistas: 4832

Re: 21 a 28/9 - Fresco a templado, caluroso N, luego tormentas C y NEA. Nuevas nevadas extremo S.

- San Fernando 00 hs: SADF 260300Z 09011KT 4000 TSRA SCT045CB OVC050 16/15 Q1013 - Aeroparque 00 hs: SABE 260300Z 14009KT 5000 -TSRA FEW045CB OVC070 16/14 Q1014 http://img.gustfront.com.ar/rep/2009/5d44ee6f2c3f71b73125876103c8f6c4030b77bdf6d38c29fa78d73a24c2e00d.jpg http://img.gustfront.com.ar/rep/2...
por Diecha
Vie Sep 25, 2020 11:18 pm
Foro: Seguimientos Meteorológicos
Tema: 21 a 28/9 - Fresco a templado, caluroso N, luego tormentas C y NEA. Nuevas nevadas extremo S.
Respuestas: 223
Vistas: 4832

Re: 21 a 28/9 - Fresco a templado, caluroso N, luego tormentas C y NEA. Nuevas nevadas extremo S.

- Paraná 23 hs: SAAP 260200Z 07014KT CAVOK 21/16 Q1007 - Sauce Viejo 23 hs: SAAV 260200Z 11011KT CAVOK 22/17 Q1005 http://img.gustfront.com.ar/rep/2009/5d44ee6f2c3f71b73125876103c8f6c473ce98d8ef67d2f7582bdb3577d3efef.jpg http://img.gustfront.com.ar/rep/2009/781_5d44ee6f2c3f71b73125876103c8f6c446fe31...
por Diecha
Vie Sep 25, 2020 10:04 pm
Foro: Seguimientos Meteorológicos
Tema: 21 a 28/9 - Fresco a templado, caluroso N, luego tormentas C y NEA. Nuevas nevadas extremo S.
Respuestas: 223
Vistas: 4832

Re: 21 a 28/9 - Fresco a templado, caluroso N, luego tormentas C y NEA. Nuevas nevadas extremo S.

http://img.gustfront.com.ar/rep/2009/5d44ee6f2c3f71b73125876103c8f6c4d30fe2a15524b8abdff1c2a6dae241f0.jpg http://img.gustfront.com.ar/rep/2009/108_5d44ee6f2c3f71b73125876103c8f6c471353226910853ba4403f9df31a4da32.gif http://img.gustfront.com.ar/rep/2009/5d44ee6f2c3f71b73125876103c8f6c4d1cbb78ce54805...